sensor_id;sensor_type;location;lat;lon;timestamp;temperature;humidity
21417;DHT22;10869;52.238;10.716;2024-01-15T00:00:55;0.80;99.90
21417;DHT22;10869;52.238;10.716;2024-01-15T00:03:27;0.80;99.90
21417;DHT22;10869;52.238;10.716;2024-01-15T00:05:53;0.80;99.90
21417;DHT22;10869;52.238;10.716;2024-01-15T00:08:28;0.80;99.90
21417;DHT22;10869;52.238;10.716;2024-01-15T00:13:34;0.80;99.90
21417;DHT22;10869;52.238;10.716;2024-01-15T00:16:00;0.80;99.90
21417;DHT22;10869;52.238;10.716;2024-01-15T00:18:26;0.80;99.90
21417;DHT22;10869;52.238;10.716;2024-01-15T00:20:51;0.80;99.90
21417;DHT22;10869;52.238;10.716;2024-01-15T00:23:17;0.90;99.90
21417;DHT22;10869;52.238;10.716;2024-01-15T00:25:43;0.90;99.90
21417;DHT22;10869;52.238;10.716;2024-01-15T00:28:09;0.90;99.90
21417;DHT22;10869;52.238;10.716;2024-01-15T00:30:34;0.80;99.90
21417;DHT22;10869;52.238;10.716;2024-01-15T00:33:00;0.80;99.90
21417;DHT22;10869;52.238;10.716;2024-01-15T00:35:26;0.80;99.90
21417;DHT22;10869;52.238;10.716;2024-01-15T00:37:52;0.80;99.90
21417;DHT22;10869;52.238;10.716;2024-01-15T00:40:17;0.80;99.90
21417;DHT22;10869;52.238;10.716;2024-01-15T00:42:43;0.80;99.90
21417;DHT22;10869;52.238;10.716;2024-01-15T00:45:09;0.80;99.90
21417;DHT22;10869;52.238;10.716;2024-01-15T00:47:35;0.80;99.90
21417;DHT22;10869;52.238;10.716;2024-01-15T00:50:01;0.90;99.90
21417;DHT22;10869;52.238;10.716;2024-01-15T00:55:49;0.80;99.90
21417;DHT22;10869;52.238;10.716;2024-01-15T00:58:15;0.80;99.90
21417;DHT22;10869;52.238;10.716;2024-01-15T01:00:41;0.80;99.90
21417;DHT22;10869;52.238;10.716;2024-01-15T01:03:08;0.80;99.90
21417;DHT22;10869;52.238;10.716;2024-01-15T01:05:34;0.80;99.90
21417;DHT22;10869;52.238;10.716;2024-01-15T01:08:00;0.80;99.90
21417;DHT22;10869;52.238;10.716;2024-01-15T01:10:27;0.80;99.90
21417;DHT22;10869;52.238;10.716;2024-01-15T01:12:53;0.80;99.90
21417;DHT22;10869;52.238;10.716;2024-01-15T01:15:19;0.80;99.90
21417;DHT22;10869;52.238;10.716;2024-01-15T01:17:45;0.80;99.90
21417;DHT22;10869;52.238;10.716;2024-01-15T01:20:12;0.90;99.90
21417;DHT22;10869;52.238;10.716;2024-01-15T01:22:37;0.80;99.90
21417;DHT22;10869;52.238;10.716;2024-01-15T01:25:03;0.80;99.90
21417;DHT22;10869;52.238;10.716;2024-01-15T01:27:29;0.80;99.90
21417;DHT22;10869;52.238;10.716;2024-01-15T01:29:55;0.80;99.90
21417;DHT22;10869;52.238;10.716;2024-01-15T01:32:21;0.70;99.90
21417;DHT22;10869;52.238;10.716;2024-01-15T01:34:47;0.70;99.90
21417;DHT22;10869;52.238;10.716;2024-01-15T01:37:13;0.70;99.90
21417;DHT22;10869;52.238;10.716;2024-01-15T01:39:40;0.80;99.90
21417;DHT22;10869;52.238;10.716;2024-01-15T01:42:06;0.70;99.90
21417;DHT22;10869;52.238;10.716;2024-01-15T01:44:32;0.70;99.90
21417;DHT22;10869;52.238;10.716;2024-01-15T01:47:01;0.70;99.90
21417;DHT22;10869;52.238;10.716;2024-01-15T01:49:28;0.70;99.90
21417;DHT22;10869;52.238;10.716;2024-01-15T01:51:59;0.70;99.90
21417;DHT22;10869;52.238;10.716;2024-01-15T01:54:27;0.70;99.90
21417;DHT22;10869;52.238;10.716;2024-01-15T01:56:54;0.70;99.90
21417;DHT22;10869;52.238;10.716;2024-01-15T01:59:21;0.60;99.90
21417;DHT22;10869;52.238;10.716;2024-01-15T02:01:49;0.60;99.90
21417;DHT22;10869;52.238;10.716;2024-01-15T02:04:16;0.60;99.90
21417;DHT22;10869;52.238;10.716;2024-01-15T02:06:42;0.70;99.90
21417;DHT22;10869;52.238;10.716;2024-01-15T02:09:08;0.70;99.90
21417;DHT22;10869;52.238;10.716;2024-01-15T02:11:35;0.70;99.90
21417;DHT22;10869;52.238;10.716;2024-01-15T02:14:02;0.70;99.90
21417;DHT22;10869;52.238;10.716;2024-01-15T02:16:28;0.70;99.90
21417;DHT22;10869;52.238;10.716;2024-01-15T02:18:54;0.70;99.90
21417;DHT22;10869;52.238;10.716;2024-01-15T02:21:19;0.70;99.90
21417;DHT22;10869;52.238;10.716;2024-01-15T02:23:45;0.80;99.90
21417;DHT22;10869;52.238;10.716;2024-01-15T02:26:11;0.80;99.90
21417;DHT22;10869;52.238;10.716;2024-01-15T02:28:37;0.80;99.90
21417;DHT22;10869;52.238;10.716;2024-01-15T02:31:03;0.80;99.90
21417;DHT22;10869;52.238;10.716;2024-01-15T02:33:29;0.80;99.90
21417;DHT22;10869;52.238;10.716;2024-01-15T02:35:54;0.80;99.90
21417;DHT22;10869;52.238;10.716;2024-01-15T02:38:20;0.80;99.90
21417;DHT22;10869;52.238;10.716;2024-01-15T02:40:46;0.70;99.90
21417;DHT22;10869;52.238;10.716;2024-01-15T02:43:12;0.80;99.90
21417;DHT22;10869;52.238;10.716;2024-01-15T02:45:39;0.80;99.90
21417;DHT22;10869;52.238;10.716;2024-01-15T02:48:05;0.80;99.90
21417;DHT22;10869;52.238;10.716;2024-01-15T02:50:31;0.80;99.90
21417;DHT22;10869;52.238;10.716;2024-01-15T02:52:57;0.80;99.90
21417;DHT22;10869;52.238;10.716;2024-01-15T02:55:22;0.80;99.90
21417;DHT22;10869;52.238;10.716;2024-01-15T02:57:48;0.80;99.90
21417;DHT22;10869;52.238;10.716;2024-01-15T03:00:14;0.80;99.90
21417;DHT22;10869;52.238;10.716;2024-01-15T03:02:40;0.80;99.90
21417;DHT22;10869;52.238;10.716;2024-01-15T03:05:12;0.80;99.90
21417;DHT22;10869;52.238;10.716;2024-01-15T03:07:38;0.90;99.90
21417;DHT22;10869;52.238;10.716;2024-01-15T03:10:05;0.90;99.90
21417;DHT22;10869;52.238;10.716;2024-01-15T03:12:31;0.90;99.90
21417;DHT22;10869;52.238;10.716;2024-01-15T03:14:57;0.90;99.90
21417;DHT22;10869;52.238;10.716;2024-01-15T03:17:23;1.00;99.90
21417;DHT22;10869;52.238;10.716;2024-01-15T03:19:49;1.00;99.90
21417;DHT22;10869;52.238;10.716;2024-01-15T03:22:16;1.00;99.90
21417;DHT22;10869;52.238;10.716;2024-01-15T03:24:42;1.00;99.90
21417;DHT22;10869;52.238;10.716;2024-01-15T03:27:07;1.00;99.90
21417;DHT22;10869;52.238;10.716;2024-01-15T03:29:33;1.00;99.90
21417;DHT22;10869;52.238;10.716;2024-01-15T03:31:59;1.00;99.90
21417;DHT22;10869;52.238;10.716;2024-01-15T03:34:25;1.00;99.90
21417;DHT22;10869;52.238;10.716;2024-01-15T03:36:50;1.00;99.90
21417;DHT22;10869;52.238;10.716;2024-01-15T03:39:16;1.00;99.90
21417;DHT22;10869;52.238;10.716;2024-01-15T03:41:42;1.00;99.90
21417;DHT22;10869;52.238;10.716;2024-01-15T03:44:08;1.00;99.90
21417;DHT22;10869;52.238;10.716;2024-01-15T03:46:33;1.10;99.90
21417;DHT22;10869;52.238;10.716;2024-01-15T03:48:59;1.10;99.90
21417;DHT22;10869;52.238;10.716;2024-01-15T03:51:27;1.00;99.90
21417;DHT22;10869;52.238;10.716;2024-01-15T03:54:06;1.00;99.90
21417;DHT22;10869;52.238;10.716;2024-01-15T03:56:32;1.10;99.90
21417;DHT22;10869;52.238;10.716;2024-01-15T04:02:19;1.00;99.90
21417;DHT22;10869;52.238;10.716;2024-01-15T04:04:45;1.10;99.90
21417;DHT22;10869;52.238;10.716;2024-01-15T04:07:11;1.00;99.90
21417;DHT22;10869;52.238;10.716;2024-01-15T04:09:37;1.00;99.90
21417;DHT22;10869;52.238;10.716;2024-01-15T04:12:03;1.10;99.90
21417;DHT22;10869;52.238;10.716;2024-01-15T04:14:28;1.10;99.90
21417;DHT22;10869;52.238;10.716;2024-01-15T04:16:54;1.10;99.90
21417;DHT22;10869;52.238;10.716;2024-01-15T04:19:20;1.10;99.90
21417;DHT22;10869;52.238;10.716;2024-01-15T04:21:46;1.10;99.90
21417;DHT22;10869;52.238;10.716;2024-01-15T04:24:11;1.10;99.90
21417;DHT22;10869;52.238;10.716;2024-01-15T04:26:37;1.00;99.90
21417;DHT22;10869;52.238;10.716;2024-01-15T04:29:03;1.00;99.90
21417;DHT22;10869;52.238;10.716;2024-01-15T04:31:29;1.00;99.90
21417;DHT22;10869;52.238;10.716;2024-01-15T04:33:54;1.00;99.90
21417;DHT22;10869;52.238;10.716;2024-01-15T04:36:20;1.00;99.90
21417;DHT22;10869;52.238;10.716;2024-01-15T04:38:46;1.00;99.90
21417;DHT22;10869;52.238;10.716;2024-01-15T04:41:13;1.00;99.90
21417;DHT22;10869;52.238;10.716;2024-01-15T04:43:39;1.00;99.90
21417;DHT22;10869;52.238;10.716;2024-01-15T04:46:08;1.00;99.90
21417;DHT22;10869;52.238;10.716;2024-01-15T04:48:34;1.00;99.90
21417;DHT22;10869;52.238;10.716;2024-01-15T04:51:00;1.00;99.90
21417;DHT22;10869;52.238;10.716;2024-01-15T04:53:26;0.90;99.90
21417;DHT22;10869;52.238;10.716;2024-01-15T04:55:52;1.00;99.90
21417;DHT22;10869;52.238;10.716;2024-01-15T04:58:18;1.00;99.90
21417;DHT22;10869;52.238;10.716;2024-01-15T05:00:43;1.00;99.90
21417;DHT22;10869;52.238;10.716;2024-01-15T05:03:09;1.00;99.90
21417;DHT22;10869;52.238;10.716;2024-01-15T05:05:35;1.00;99.90
21417;DHT22;10869;52.238;10.716;2024-01-15T05:08:01;1.00;99.90
21417;DHT22;10869;52.238;10.716;2024-01-15T05:10:26;1.10;99.90
21417;DHT22;10869;52.238;10.716;2024-01-15T05:12:52;1.00;99.90
21417;DHT22;10869;52.238;10.716;2024-01-15T05:15:18;1.00;99.90
21417;DHT22;10869;52.238;10.716;2024-01-15T05:17:43;1.00;99.90
21417;DHT22;10869;52.238;10.716;2024-01-15T05:20:10;1.00;99.90
21417;DHT22;10869;52.238;10.716;2024-01-15T05:22:35;1.00;99.90
21417;DHT22;10869;52.238;10.716;2024-01-15T05:25:01;1.10;99.90
21417;DHT22;10869;52.238;10.716;2024-01-15T05:27:27;1.10;99.90
21417;DHT22;10869;52.238;10.716;2024-01-15T05:29:52;1.10;99.90
21417;DHT22;10869;52.238;10.716;2024-01-15T05:32:18;1.10;99.90
21417;DHT22;10869;52.238;10.716;2024-01-15T05:34:44;1.10;99.90
21417;DHT22;10869;52.238;10.716;2024-01-15T05:37:10;1.10;99.90
21417;DHT22;10869;52.238;10.716;2024-01-15T05:39:35;1.10;99.90
21417;DHT22;10869;52.238;10.716;2024-01-15T05:42:01;1.10;99.90
21417;DHT22;10869;52.238;10.716;2024-01-15T05:44:27;1.00;99.90
21417;DHT22;10869;52.238;10.716;2024-01-15T05:46:53;1.00;99.90
21417;DHT22;10869;52.238;10.716;2024-01-15T05:49:19;1.00;99.90
21417;DHT22;10869;52.238;10.716;2024-01-15T05:51:45;0.90;99.90
21417;DHT22;10869;52.238;10.716;2024-01-15T05:54:10;0.90;99.90
21417;DHT22;10869;52.238;10.716;2024-01-15T05:56:36;0.90;99.90
21417;DHT22;10869;52.238;10.716;2024-01-15T05:59:02;0.90;99.90
21417;DHT22;10869;52.238;10.716;2024-01-15T06:01:27;0.90;99.90
21417;DHT22;10869;52.238;10.716;2024-01-15T06:03:53;0.90;99.90
21417;DHT22;10869;52.238;10.716;2024-01-15T06:06:22;0.90;99.90
21417;DHT22;10869;52.238;10.716;2024-01-15T06:08:48;0.90;99.90
21417;DHT22;10869;52.238;10.716;2024-01-15T06:11:13;0.90;99.90
21417;DHT22;10869;52.238;10.716;2024-01-15T06:13:39;1.00;99.90
21417;DHT22;10869;52.238;10.716;2024-01-15T06:16:15;0.90;99.90
21417;DHT22;10869;52.238;10.716;2024-01-15T06:18:45;1.00;99.90
21417;DHT22;10869;52.238;10.716;2024-01-15T06:21:11;1.00;99.90
21417;DHT22;10869;52.238;10.716;2024-01-15T06:23:40;1.00;99.90
21417;DHT22;10869;52.238;10.716;2024-01-15T06:26:05;1.00;99.90
21417;DHT22;10869;52.238;10.716;2024-01-15T06:28:31;1.00;99.90
21417;DHT22;10869;52.238;10.716;2024-01-15T06:30:57;1.00;99.90
21417;DHT22;10869;52.238;10.716;2024-01-15T06:33:24;1.00;99.90
21417;DHT22;10869;52.238;10.716;2024-01-15T06:35:50;1.00;99.90
21417;DHT22;10869;52.238;10.716;2024-01-15T06:38:16;1.00;99.90
21417;DHT22;10869;52.238;10.716;2024-01-15T06:40:42;1.00;99.90
21417;DHT22;10869;52.238;10.716;2024-01-15T06:43:14;1.00;99.90
21417;DHT22;10869;52.238;10.716;2024-01-15T06:45:46;0.90;99.90
21417;DHT22;10869;52.238;10.716;2024-01-15T06:48:11;0.90;99.90
21417;DHT22;10869;52.238;10.716;2024-01-15T06:50:45;0.90;99.90
21417;DHT22;10869;52.238;10.716;2024-01-15T06:53:11;0.90;99.90
21417;DHT22;10869;52.238;10.716;2024-01-15T06:55:38;0.80;99.90
21417;DHT22;10869;52.238;10.716;2024-01-15T06:58:04;0.80;99.90
21417;DHT22;10869;52.238;10.716;2024-01-15T07:00:30;0.80;99.90
21417;DHT22;10869;52.238;10.716;2024-01-15T07:02:56;0.80;99.90
21417;DHT22;10869;52.238;10.716;2024-01-15T07:05:23;0.80;99.90
21417;DHT22;10869;52.238;10.716;2024-01-15T07:07:49;0.80;99.90
21417;DHT22;10869;52.238;10.716;2024-01-15T07:10:15;0.80;99.90
21417;DHT22;10869;52.238;10.716;2024-01-15T07:12:44;0.80;99.90
21417;DHT22;10869;52.238;10.716;2024-01-15T07:15:11;0.70;99.90
21417;DHT22;10869;52.238;10.716;2024-01-15T07:17:37;0.80;99.90
21417;DHT22;10869;52.238;10.716;2024-01-15T07:20:07;0.80;99.90
21417;DHT22;10869;52.238;10.716;2024-01-15T07:22:35;0.80;99.90
21417;DHT22;10869;52.238;10.716;2024-01-15T07:25:03;0.80;99.90
21417;DHT22;10869;52.238;10.716;2024-01-15T07:27:31;0.80;99.90
21417;DHT22;10869;52.238;10.716;2024-01-15T07:29:57;0.80;99.90
21417;DHT22;10869;52.238;10.716;2024-01-15T07:32:23;0.80;99.90
21417;DHT22;10869;52.238;10.716;2024-01-15T07:34:49;0.80;99.90
21417;DHT22;10869;52.238;10.716;2024-01-15T07:37:15;0.80;99.90
21417;DHT22;10869;52.238;10.716;2024-01-15T07:39:41;0.80;99.90
21417;DHT22;10869;52.238;10.716;2024-01-15T07:42:07;0.80;99.90
21417;DHT22;10869;52.238;10.716;2024-01-15T07:44:33;0.80;99.90
21417;DHT22;10869;52.238;10.716;2024-01-15T07:47:05;0.80;99.90
21417;DHT22;10869;52.238;10.716;2024-01-15T07:52:53;0.80;99.90
21417;DHT22;10869;52.238;10.716;2024-01-15T07:55:19;0.80;99.90
21417;DHT22;10869;52.238;10.716;2024-01-15T07:57:45;0.80;99.90
21417;DHT22;10869;52.238;10.716;2024-01-15T08:00:11;0.70;99.90
21417;DHT22;10869;52.238;10.716;2024-01-15T08:02:37;0.70;99.90
21417;DHT22;10869;52.238;10.716;2024-01-15T08:05:04;0.70;99.90
21417;DHT22;10869;52.238;10.716;2024-01-15T08:10:53;0.70;99.90
21417;DHT22;10869;52.238;10.716;2024-01-15T08:13:19;0.80;99.90
21417;DHT22;10869;52.238;10.716;2024-01-15T08:15:46;0.80;99.90
21417;DHT22;10869;52.238;10.716;2024-01-15T08:18:12;0.80;99.90
21417;DHT22;10869;52.238;10.716;2024-01-15T08:24:01;0.80;99.90
21417;DHT22;10869;52.238;10.716;2024-01-15T08:26:28;0.80;99.90
21417;DHT22;10869;52.238;10.716;2024-01-15T08:32:16;0.80;99.90
21417;DHT22;10869;52.238;10.716;2024-01-15T08:38:04;0.90;99.90
21417;DHT22;10869;52.238;10.716;2024-01-15T08:40:31;0.90;99.90
21417;DHT22;10869;52.238;10.716;2024-01-15T08:46:19;0.90;99.90
21417;DHT22;10869;52.238;10.716;2024-01-15T08:48:44;0.90;99.90
21417;DHT22;10869;52.238;10.716;2024-01-15T08:51:11;0.90;99.90
21417;DHT22;10869;52.238;10.716;2024-01-15T08:53:37;0.90;99.90
21417;DHT22;10869;52.238;10.716;2024-01-15T08:56:02;0.90;99.90
21417;DHT22;10869;52.238;10.716;2024-01-15T08:58:35;0.90;99.90
21417;DHT22;10869;52.238;10.716;2024-01-15T09:01:00;0.90;99.90
21417;DHT22;10869;52.238;10.716;2024-01-15T09:03:26;0.90;99.90
21417;DHT22;10869;52.238;10.716;2024-01-15T09:05:55;0.90;99.90
21417;DHT22;10869;52.238;10.716;2024-01-15T09:08:21;0.80;99.90
21417;DHT22;10869;52.238;10.716;2024-01-15T09:10:47;0.90;99.90
21417;DHT22;10869;52.238;10.716;2024-01-15T09:13:13;0.90;99.90
21417;DHT22;10869;52.238;10.716;2024-01-15T09:15:38;0.90;99.90
21417;DHT22;10869;52.238;10.716;2024-01-15T09:18:04;0.80;99.90
21417;DHT22;10869;52.238;10.716;2024-01-15T09:20:30;0.80;99.90
21417;DHT22;10869;52.238;10.716;2024-01-15T09:22:56;0.90;99.90
21417;DHT22;10869;52.238;10.716;2024-01-15T09:25:22;0.90;99.90
21417;DHT22;10869;52.238;10.716;2024-01-15T09:27:48;0.90;99.90
21417;DHT22;10869;52.238;10.716;2024-01-15T09:30:14;0.90;99.90
21417;DHT22;10869;52.238;10.716;2024-01-15T09:32:40;1.00;99.90
21417;DHT22;10869;52.238;10.716;2024-01-15T09:35:06;1.00;99.90
21417;DHT22;10869;52.238;10.716;2024-01-15T09:37:32;1.10;99.90
21417;DHT22;10869;52.238;10.716;2024-01-15T09:39:58;1.20;99.90
21417;DHT22;10869;52.238;10.716;2024-01-15T09:42:30;1.30;99.90
21417;DHT22;10869;52.238;10.716;2024-01-15T09:44:56;1.30;99.90
21417;DHT22;10869;52.238;10.716;2024-01-15T09:50:45;1.20;99.90
21417;DHT22;10869;52.238;10.716;2024-01-15T09:56:33;1.00;99.90
21417;DHT22;10869;52.238;10.716;2024-01-15T09:59:00;1.00;99.90
21417;DHT22;10869;52.238;10.716;2024-01-15T10:01:26;1.00;99.90
21417;DHT22;10869;52.238;10.716;2024-01-15T10:03:55;1.00;99.90
21417;DHT22;10869;52.238;10.716;2024-01-15T10:06:22;1.10;99.90
21417;DHT22;10869;52.238;10.716;2024-01-15T10:08:49;1.00;99.90
21417;DHT22;10869;52.238;10.716;2024-01-15T10:11:16;1.10;99.90
21417;DHT22;10869;52.238;10.716;2024-01-15T10:13:45;1.10;99.90
21417;DHT22;10869;52.238;10.716;2024-01-15T10:16:14;1.20;99.90
21417;DHT22;10869;52.238;10.716;2024-01-15T10:18:39;1.20;99.90
21417;DHT22;10869;52.238;10.716;2024-01-15T10:21:08;1.30;99.90
21417;DHT22;10869;52.238;10.716;2024-01-15T10:23:34;1.30;99.90
21417;DHT22;10869;52.238;10.716;2024-01-15T10:26:03;1.40;99.90
21417;DHT22;10869;52.238;10.716;2024-01-15T10:28:30;1.40;99.90
21417;DHT22;10869;52.238;10.716;2024-01-15T10:30:58;1.50;99.90
21417;DHT22;10869;52.238;10.716;2024-01-15T10:33:27;1.40;99.90
21417;DHT22;10869;52.238;10.716;2024-01-15T10:35:57;1.50;99.90
21417;DHT22;10869;52.238;10.716;2024-01-15T10:38:26;1.50;99.90
21417;DHT22;10869;52.238;10.716;2024-01-15T10:44:14;1.50;99.90
21417;DHT22;10869;52.238;10.716;2024-01-15T10:50:01;1.60;99.90
21417;DHT22;10869;52.238;10.716;2024-01-15T10:52:28;1.60;99.90
21417;DHT22;10869;52.238;10.716;2024-01-15T10:54:55;1.60;99.90
21417;DHT22;10869;52.238;10.716;2024-01-15T10:57:22;1.60;99.90
21417;DHT22;10869;52.238;10.716;2024-01-15T10:59:48;1.60;99.90
21417;DHT22;10869;52.238;10.716;2024-01-15T11:02:15;1.60;99.90
21417;DHT22;10869;52.238;10.716;2024-01-15T11:04:41;1.70;99.90
21417;DHT22;10869;52.238;10.716;2024-01-15T11:07:07;1.70;99.90
21417;DHT22;10869;52.238;10.716;2024-01-15T11:12:56;1.70;99.90
21417;DHT22;10869;52.238;10.716;2024-01-15T11:15:22;1.70;99.90
21417;DHT22;10869;52.238;10.716;2024-01-15T11:17:58;1.70;99.90
21417;DHT22;10869;52.238;10.716;2024-01-15T11:20:31;1.70;99.90
21417;DHT22;10869;52.238;10.716;2024-01-15T11:22:58;1.70;99.90
21417;DHT22;10869;52.238;10.716;2024-01-15T11:25:34;1.70;99.90
21417;DHT22;10869;52.238;10.716;2024-01-15T11:28:02;1.70;99.90
21417;DHT22;10869;52.238;10.716;2024-01-15T11:30:27;1.80;99.90
21417;DHT22;10869;52.238;10.716;2024-01-15T11:32:53;1.80;99.90
21417;DHT22;10869;52.238;10.716;2024-01-15T11:35:19;1.70;99.90
21417;DHT22;10869;52.238;10.716;2024-01-15T11:40:36;1.60;99.90
21417;DHT22;10869;52.238;10.716;2024-01-15T11:43:04;1.50;99.90
21417;DHT22;10869;52.238;10.716;2024-01-15T11:45:31;1.60;99.90
21417;DHT22;10869;52.238;10.716;2024-01-15T11:50:35;1.70;99.90
21417;DHT22;10869;52.238;10.716;2024-01-15T11:53:01;1.80;99.90
21417;DHT22;10869;52.238;10.716;2024-01-15T11:55:35;1.80;99.90
21417;DHT22;10869;52.238;10.716;2024-01-15T11:58:08;1.80;99.90
21417;DHT22;10869;52.238;10.716;2024-01-15T12:00:45;1.80;99.90
21417;DHT22;10869;52.238;10.716;2024-01-15T12:06:34;1.80;99.90
21417;DHT22;10869;52.238;10.716;2024-01-15T12:09:08;1.80;99.90
21417;DHT22;10869;52.238;10.716;2024-01-15T12:11:36;1.80;99.90
21417;DHT22;10869;52.238;10.716;2024-01-15T12:14:04;1.80;99.90
21417;DHT22;10869;52.238;10.716;2024-01-15T12:16:30;1.70;99.90
21417;DHT22;10869;52.238;10.716;2024-01-15T12:18:56;1.70;99.90
21417;DHT22;10869;52.238;10.716;2024-01-15T12:21:21;1.70;99.90
21417;DHT22;10869;52.238;10.716;2024-01-15T12:23:47;1.60;99.90
21417;DHT22;10869;52.238;10.716;2024-01-15T12:26:14;1.70;99.90
21417;DHT22;10869;52.238;10.716;2024-01-15T12:28:40;1.70;99.90
21417;DHT22;10869;52.238;10.716;2024-01-15T12:31:08;1.70;99.90
21417;DHT22;10869;52.238;10.716;2024-01-15T12:33:34;1.60;99.90
21417;DHT22;10869;52.238;10.716;2024-01-15T12:36:00;1.60;99.90
21417;DHT22;10869;52.238;10.716;2024-01-15T12:38:28;1.60;99.90
21417;DHT22;10869;52.238;10.716;2024-01-15T12:40:54;1.60;99.90
21417;DHT22;10869;52.238;10.716;2024-01-15T12:43:20;1.60;99.90
21417;DHT22;10869;52.238;10.716;2024-01-15T12:45:49;1.60;99.90
21417;DHT22;10869;52.238;10.716;2024-01-15T12:48:16;1.60;99.90
21417;DHT22;10869;52.238;10.716;2024-01-15T12:50:43;1.60;99.90
21417;DHT22;10869;52.238;10.716;2024-01-15T12:53:11;1.60;99.90
21417;DHT22;10869;52.238;10.716;2024-01-15T12:55:39;1.60;99.90
21417;DHT22;10869;52.238;10.716;2024-01-15T12:58:05;1.60;99.90
21417;DHT22;10869;52.238;10.716;2024-01-15T13:00:34;1.60;99.90
21417;DHT22;10869;52.238;10.716;2024-01-15T13:03:03;1.60;99.90
21417;DHT22;10869;52.238;10.716;2024-01-15T13:05:31;1.50;99.90
21417;DHT22;10869;52.238;10.716;2024-01-15T13:11:28;1.50;99.90
21417;DHT22;10869;52.238;10.716;2024-01-15T13:13:53;1.50;99.90
21417;DHT22;10869;52.238;10.716;2024-01-15T13:19:42;1.50;99.90
21417;DHT22;10869;52.238;10.716;2024-01-15T13:28:58;1.40;99.90
21417;DHT22;10869;52.238;10.716;2024-01-15T13:31:24;1.40;99.90
21417;DHT22;10869;52.238;10.716;2024-01-15T13:33:49;1.40;99.90
21417;DHT22;10869;52.238;10.716;2024-01-15T13:36:15;1.40;99.90
21417;DHT22;10869;52.238;10.716;2024-01-15T13:42:31;1.30;99.90
21417;DHT22;10869;52.238;10.716;2024-01-15T13:48:19;1.30;99.90
21417;DHT22;10869;52.238;10.716;2024-01-15T13:54:07;1.40;99.90
21417;DHT22;10869;52.238;10.716;2024-01-15T13:56:33;1.40;99.90
21417;DHT22;10869;52.238;10.716;2024-01-15T13:59:00;1.40;99.90
21417;DHT22;10869;52.238;10.716;2024-01-15T14:04:48;1.50;99.90
21417;DHT22;10869;52.238;10.716;2024-01-15T14:07:16;1.40;99.90
21417;DHT22;10869;52.238;10.716;2024-01-15T14:09:42;1.40;99.90
21417;DHT22;10869;52.238;10.716;2024-01-15T14:12:11;1.40;99.90
21417;DHT22;10869;52.238;10.716;2024-01-15T14:17:59;1.40;99.90
21417;DHT22;10869;52.238;10.716;2024-01-15T14:20:27;1.30;99.90
21417;DHT22;10869;52.238;10.716;2024-01-15T14:22:53;1.30;99.90
21417;DHT22;10869;52.238;10.716;2024-01-15T14:25:20;1.20;99.90
21417;DHT22;10869;52.238;10.716;2024-01-15T14:27:46;1.20;99.90
21417;DHT22;10869;52.238;10.716;2024-01-15T14:30:13;1.20;99.90
21417;DHT22;10869;52.238;10.716;2024-01-15T14:32:40;1.10;99.90
21417;DHT22;10869;52.238;10.716;2024-01-15T14:35:09;1.00;99.90
21417;DHT22;10869;52.238;10.716;2024-01-15T14:37:39;1.00;99.90
21417;DHT22;10869;52.238;10.716;2024-01-15T14:40:06;1.00;99.90
21417;DHT22;10869;52.238;10.716;2024-01-15T14:42:41;0.90;99.90
21417;DHT22;10869;52.238;10.716;2024-01-15T14:45:07;0.90;99.90
21417;DHT22;10869;52.238;10.716;2024-01-15T14:51:03;0.90;99.90
21417;DHT22;10869;52.238;10.716;2024-01-15T14:53:35;0.90;99.90
21417;DHT22;10869;52.238;10.716;2024-01-15T14:56:01;0.90;99.90
21417;DHT22;10869;52.238;10.716;2024-01-15T14:58:28;0.90;99.90
21417;DHT22;10869;52.238;10.716;2024-01-15T15:00:55;0.90;99.90
21417;DHT22;10869;52.238;10.716;2024-01-15T15:03:24;0.80;99.90
21417;DHT22;10869;52.238;10.716;2024-01-15T15:05:49;0.80;99.90
21417;DHT22;10869;52.238;10.716;2024-01-15T15:08:15;0.80;99.90
21417;DHT22;10869;52.238;10.716;2024-01-15T15:10:41;0.80;99.90
21417;DHT22;10869;52.238;10.716;2024-01-15T15:13:10;0.80;99.90
21417;DHT22;10869;52.238;10.716;2024-01-15T15:15:45;0.80;99.90
21417;DHT22;10869;52.238;10.716;2024-01-15T15:18:13;0.80;99.90
21417;DHT22;10869;52.238;10.716;2024-01-15T15:20:39;0.70;99.90
21417;DHT22;10869;52.238;10.716;2024-01-15T15:23:04;0.70;99.90
21417;DHT22;10869;52.238;10.716;2024-01-15T15:25:34;0.70;99.90
21417;DHT22;10869;52.238;10.716;2024-01-15T15:28:15;0.60;99.90
21417;DHT22;10869;52.238;10.716;2024-01-15T15:34:04;0.60;99.90
21417;DHT22;10869;52.238;10.716;2024-01-15T15:36:31;0.60;99.90
21417;DHT22;10869;52.238;10.716;2024-01-15T15:42:18;0.50;99.90
21417;DHT22;10869;52.238;10.716;2024-01-15T15:44:48;0.50;99.90
21417;DHT22;10869;52.238;10.716;2024-01-15T15:47:14;0.40;99.90
21417;DHT22;10869;52.238;10.716;2024-01-15T15:49:41;0.40;99.90
21417;DHT22;10869;52.238;10.716;2024-01-15T15:55:29;0.50;99.90
21417;DHT22;10869;52.238;10.716;2024-01-15T15:57:54;0.50;99.90
21417;DHT22;10869;52.238;10.716;2024-01-15T16:00:20;0.50;99.90
21417;DHT22;10869;52.238;10.716;2024-01-15T16:02:46;0.50;99.90
21417;DHT22;10869;52.238;10.716;2024-01-15T16:05:11;0.50;99.90
21417;DHT22;10869;52.238;10.716;2024-01-15T16:14:21;0.50;99.90
21417;DHT22;10869;52.238;10.716;2024-01-15T16:16:47;0.50;99.90
21417;DHT22;10869;52.238;10.716;2024-01-15T16:19:13;0.50;99.90
21417;DHT22;10869;52.238;10.716;2024-01-15T16:21:39;0.50;99.90
21417;DHT22;10869;52.238;10.716;2024-01-15T16:24:04;0.50;99.90
21417;DHT22;10869;52.238;10.716;2024-01-15T16:29:52;0.50;99.90
21417;DHT22;10869;52.238;10.716;2024-01-15T16:35:40;0.50;99.90
21417;DHT22;10869;52.238;10.716;2024-01-15T16:41:27;0.50;99.90
21417;DHT22;10869;52.238;10.716;2024-01-15T16:43:53;0.50;99.90
21417;DHT22;10869;52.238;10.716;2024-01-15T16:46:19;0.50;99.90
21417;DHT22;10869;52.238;10.716;2024-01-15T16:48:45;0.50;99.90
21417;DHT22;10869;52.238;10.716;2024-01-15T16:51:12;0.50;99.90
21417;DHT22;10869;52.238;10.716;2024-01-15T16:53:37;0.50;99.90
21417;DHT22;10869;52.238;10.716;2024-01-15T16:56:03;0.60;99.90
21417;DHT22;10869;52.238;10.716;2024-01-15T16:58:33;0.50;99.90
21417;DHT22;10869;52.238;10.716;2024-01-15T17:01:00;0.60;99.90
21417;DHT22;10869;52.238;10.716;2024-01-15T17:03:25;0.60;99.90
21417;DHT22;10869;52.238;10.716;2024-01-15T17:05:51;0.50;99.90
21417;DHT22;10869;52.238;10.716;2024-01-15T17:08:17;0.50;99.90
21417;DHT22;10869;52.238;10.716;2024-01-15T17:10:43;0.60;99.90
21417;DHT22;10869;52.238;10.716;2024-01-15T17:13:09;0.60;99.90
21417;DHT22;10869;52.238;10.716;2024-01-15T17:15:34;0.60;99.90
21417;DHT22;10869;52.238;10.716;2024-01-15T17:18:00;0.60;99.90
21417;DHT22;10869;52.238;10.716;2024-01-15T17:20:26;0.60;99.90
21417;DHT22;10869;52.238;10.716;2024-01-15T17:26:14;0.60;99.90